Time;durP1;ratioP1;P1;durP2;ratioP2;P2;SDS_P1;SDS_P2;PMS_P1;PMS_P2;Temp;Humidity;BMP_temperature;BMP_pressure;BME280_temperature;BME280_humidity;BME280_pressure;Samples;Min_cycle;Max_cycle;Signal;HPM_P1;HPM_P2
2023/03/16 07:50:29;;;;;;;0.57;0.40;;;;;;;17.47;45.65;101508.47;5085453;27;96639;-76
2023/03/16 07:52:57;;;;;;;1.30;0.50;;;;;;;17.71;45.50;101506.28;5049048;27;97741;-75
2023/03/16 07:55:24;;;;;;;0.60;0.40;;;;;;;18.02;45.29;101517.09;5045641;27;99774;-75
2023/03/16 07:57:52;;;;;;;1.10;0.50;;;;;;;18.35;44.46;101511.25;5049782;27;98666;-75
2023/03/16 08:00:26;;;;;;;1.10;0.40;;;;;;;18.63;44.15;101500.56;5055448;27;96743;-75
2023/03/16 08:02:55;;;;;;;1.02;0.50;;;;;;;18.87;43.52;101502.81;5021784;27;97549;-74
2023/03/16 08:05:21;;;;;;;1.35;0.57;;;;;;;19.04;42.57;101508.34;5028392;27;99319;-75
2023/03/16 08:07:56;;;;;;;0.70;0.40;;;;;;;19.15;42.31;101501.00;5044070;27;97791;-75
2023/03/16 08:10:24;;;;;;;0.88;0.32;;;;;;;19.24;42.27;101494.66;5042983;27;99782;-77
2023/03/16 08:13:03;;;;;;;0.60;0.40;;;;;;;19.31;41.90;101491.19;5039097;27;96963;-77
2023/03/16 08:15:33;;;;;;;0.50;0.40;;;;;;;19.37;41.76;101492.50;5035989;27;97711;-77
2023/03/16 08:18:08;;;;;;;0.60;0.40;;;;;;;19.44;41.30;101484.56;5047452;27;99526;-77
2023/03/16 08:20:35;;;;;;;1.05;0.40;;;;;;;19.47;41.40;101490.59;5043637;27;97087;-77
2023/03/16 08:23:02;;;;;;;0.55;0.32;;;;;;;19.48;41.39;101475.94;5029936;27;97067;-77
2023/03/16 08:25:35;;;;;;;1.35;0.57;;;;;;;19.51;41.23;101482.97;5032255;27;97400;-77
2023/03/16 08:28:08;;;;;;;0.57;0.40;;;;;;;19.52;41.16;101480.13;5032612;27;98050;-78
2023/03/16 08:30:35;;;;;;;0.45;0.30;;;;;;;19.52;40.84;101482.84;5031574;27;97003;-77
2023/03/16 08:33:19;;;;;;;0.70;0.50;;;;;;;19.55;40.65;101489.84;5032557;27;96789;-78
2023/03/16 08:35:49;;;;;;;2.10;0.60;;;;;;;19.54;40.91;101483.56;5031851;27;99747;-77
2023/03/16 08:38:18;;;;;;;1.20;0.50;;;;;;;19.54;40.92;101472.66;5031632;27;99586;-77
2023/03/16 08:40:47;;;;;;;1.38;0.77;;;;;;;19.54;40.51;101480.81;5029777;27;96757;-77
2023/03/16 08:43:16;;;;;;;1.00;0.50;;;;;;;19.55;40.78;101468.91;5052251;27;97333;-77
2023/03/16 08:45:45;;;;;;;0.98;0.40;;;;;;;19.54;40.73;101460.91;5045169;27;100202;-77
2023/03/16 08:48:13;;;;;;;1.17;0.50;;;;;;;19.54;40.85;101467.19;5044455;27;99183;-76
2023/03/16 08:50:43;;;;;;;0.60;0.40;;;;;;;19.54;40.51;101464.47;5048092;27;97233;-77
2023/03/16 08:53:12;;;;;;;0.90;0.47;;;;;;;19.54;40.71;101467.19;5052613;27;97010;-77
2023/03/16 08:55:42;;;;;;;1.23;0.40;;;;;;;19.54;40.37;101467.19;5050490;27;97985;-77
2023/03/16 08:58:10;;;;;;;1.17;0.50;;;;;;;19.52;40.39;101466.50;5032950;27;97378;-77
2023/03/16 09:00:38;;;;;;;0.70;0.40;;;;;;;19.53;40.46;101465.50;5036354;27;96859;-77
2023/03/16 09:03:05;;;;;;;1.25;0.50;;;;;;;19.56;40.50;101470.63;5015137;27;97008;-77
2023/03/16 09:05:33;;;;;;;1.40;0.57;;;;;;;19.56;40.20;101467.06;5038070;27;97465;-77
2023/03/16 09:08:00;;;;;;;0.90;0.47;;;;;;;19.56;40.15;101465.19;5050192;27;96978;-77
2023/03/16 09:10:27;;;;;;;0.77;0.40;;;;;;;19.55;40.60;101458.03;5043242;27;96731;-77
2023/03/16 09:12:54;;;;;;;0.70;0.40;;;;;;;19.57;40.23;101457.88;5036468;27;97370;-77
2023/03/16 09:15:21;;;;;;;0.60;0.40;;;;;;;19.57;40.23;101464.19;5055894;27;97697;-77
2023/03/16 09:17:47;;;;;;;1.13;0.40;;;;;;;19.57;40.49;101458.72;5029330;27;98220;-77
2023/03/16 09:20:17;;;;;;;0.90;0.57;;;;;;;19.56;40.11;101456.16;5051240;27;96673;-77
2023/03/16 09:22:52;;;;;;;0.52;0.40;;;;;;;19.56;40.21;101464.31;5029598;27;97212;-77
2023/03/16 09:25:19;;;;;;;0.68;0.40;;;;;;;19.56;39.80;101457.00;5051928;27;96709;-77
2023/03/16 09:27:46;;;;;;;1.00;0.60;;;;;;;19.56;40.05;101457.00;5045255;27;96889;-77
2023/03/16 09:30:13;;;;;;;1.10;0.43;;;;;;;19.56;40.09;101456.16;5051617;27;96756;-77
2023/03/16 09:32:40;;;;;;;0.75;0.40;;;;;;;19.53;40.41;101462.75;5029581;27;96931;-77
2023/03/16 09:35:07;;;;;;;0.82;0.47;;;;;;;19.56;39.89;101445.25;5027166;27;99109;-78
2023/03/16 09:37:34;;;;;;;1.10;0.43;;;;;;;19.54;40.42;101447.28;5042356;27;98117;-77
2023/03/16 09:40:30;;;;;;;1.10;0.70;;;;;;;19.57;40.14;101452.41;5055381;27;98320;-77
2023/03/16 09:43:29;;;;;;;1.15;0.40;;;;;;;19.58;40.07;101443.22;5056230;27;97041;-77
2023/03/16 09:46:06;;;;;;;1.23;0.50;;;;;;;19.55;40.26;101449.84;4988276;27;97289;-77
2023/03/16 09:48:36;;;;;;;0.63;0.40;;;;;;;19.57;40.01;101447.81;5043853;27;96867;-77
2023/03/16 09:51:06;;;;;;;0.63;0.45;;;;;;;19.58;39.75;101445.97;5034878;27;96752;-77
2023/03/16 09:53:38;;;;;;;1.33;0.60;;;;;;;19.61;40.09;101442.94;5052181;27;96806;-77
2023/03/16 09:56:25;;;;;;;0.43;0.40;;;;;;;19.62;39.77;101444.63;5020838;27;100370;-77
2023/03/16 09:58:53;;;;;;;1.05;0.50;;;;;;;19.64;39.95;101439.91;5030414;27;98718;-77
2023/03/16 10:01:48;;;;;;;0.60;0.50;;;;;;;19.64;39.71;101442.63;5050820;27;97097;-77
2023/03/16 10:04:27;;;;;;;0.90;0.50;;;;;;;19.65;39.63;101439.75;5017739;27;97294;-77
2023/03/16 10:07:09;;;;;;;1.00;0.50;;;;;;;19.64;39.76;101443.47;5035130;27;96729;-77
2023/03/16 10:09:46;;;;;;;0.43;0.40;;;;;;;19.65;39.52;101434.28;5019792;27;96769;-77
2023/03/16 10:12:14;;;;;;;0.60;0.40;;;;;;;19.70;39.97;101436.56;5043665;27;96899;-77
2023/03/16 10:15:14;;;;;;;2.05;0.55;;;;;;;19.71;39.82;101415.59;5034982;27;96961;-77
2023/03/16 10:17:50;;;;;;;0.52;0.40;;;;;;;19.70;39.50;101412.03;5031647;27;96991;-77
2023/03/16 10:20:19;;;;;;;0.50;0.40;;;;;;;19.72;39.72;101418.19;5032076;27;96829;-77
2023/03/16 10:22:48;;;;;;;3.22;0.40;;;;;;;19.73;39.90;101416.31;5027309;27;97002;-76
2023/03/16 10:25:22;;;;;;;0.40;0.40;;;;;;;19.74;39.36;101413.44;5040365;27;96912;-77
2023/03/16 10:27:49;;;;;;;0.90;0.50;;;;;;;19.76;39.48;101407.81;5039212;27;97724;-76
2023/03/16 10:30:27;;;;;;;0.98;0.47;;;;;;;19.75;39.48;101401.53;5041270;27;97642;-76
2023/03/16 10:32:56;;;;;;;2.08;0.40;;;;;;;19.75;39.74;101392.50;5041762;27;96768;-76
2023/03/16 10:35:48;;;;;;;0.35;0.32;;;;;;;19.76;39.63;101397.78;5049687;27;97081;-76
2023/03/16 10:38:38;;;;;;;0.47;0.30;;;;;;;19.75;39.21;101396.06;5032874;27;97204;-76
2023/03/16 10:41:19;;;;;;;0.50;0.30;;;;;;;19.75;39.47;101403.38;5046897;27;98536;-76
2023/03/16 10:43:51;;;;;;;0.30;0.30;;;;;;;19.77;39.47;101395.91;5039986;27;97957;-76
2023/03/16 10:46:18;;;;;;;0.60;0.40;;;;;;;19.77;39.34;101394.03;5041378;27;96972;-76
2023/03/16 10:48:53;;;;;;;0.85;0.38;;;;;;;19.78;39.46;101401.22;5023157;27;97457;-76
2023/03/16 10:51:24;;;;;;;0.80;0.40;;;;;;;19.78;39.26;101393.03;5018867;27;100883;-75
2023/03/16 10:53:51;;;;;;;0.73;0.50;;;;;;;19.76;39.37;101384.16;5047163;27;97184;-77
2023/03/16 10:56:21;;;;;;;1.90;0.50;;;;;;;19.79;39.43;101385.72;5045594;27;97293;-77
2023/03/16 10:58:48;;;;;;;0.98;0.40;;;;;;;19.78;39.46;101379.41;5032550;27;97935;-77
2023/03/16 11:01:17;;;;;;;0.68;0.35;;;;;;;19.77;39.75;101377.69;5048478;27;98028;-76
2023/03/16 11:03:49;;;;;;;0.85;0.50;;;;;;;19.79;39.63;101375.66;5052937;27;96815;-76
2023/03/16 11:06:31;;;;;;;0.50;0.30;;;;;;;19.78;39.50;101373.09;5033014;27;97261;-76
2023/03/16 11:09:18;;;;;;;1.08;0.43;;;;;;;19.76;39.67;101367.81;5052976;27;97509;-76
2023/03/16 11:11:48;;;;;;;1.00;0.30;;;;;;;19.74;39.74;101379.88;5023285;27;97905;-76
2023/03/16 11:14:19;;;;;;;0.32;0.30;;;;;;;19.74;39.50;101366.25;5052318;27;96684;-76
2023/03/16 11:16:52;;;;;;;0.70;0.50;;;;;;;19.73;39.45;101370.84;5053764;27;97332;-76
2023/03/16 11:19:48;;;;;;;0.95;0.60;;;;;;;19.72;39.90;101357.38;5032574;27;99710;-76
2023/03/16 11:22:25;;;;;;;1.00;0.45;;;;;;;19.72;39.74;101350.06;5033412;27;97406;-76
2023/03/16 11:25:12;;;;;;;0.60;0.50;;;;;;;19.72;39.81;101354.66;5054212;27;97549;-75
2023/03/16 11:27:53;;;;;;;1.33;0.35;;;;;;;19.71;39.82;101339.31;5036513;27;96829;-75
2023/03/16 11:30:28;;;;;;;1.50;0.40;;;;;;;19.72;39.90;101338.28;5038472;27;98125;-75
2023/03/16 11:32:54;;;;;;;0.45;0.30;;;;;;;19.73;39.64;101332.69;5028208;27;100069;-75
2023/03/16 11:36:12;;;;;;;1.27;0.40;;;;;;;19.69;39.60;101325.84;5049147;27;96689;-74
2023/03/16 11:39:09;;;;;;;1.02;0.60;;;;;;;19.70;39.81;101321.25;5042224;27;96773;-75
2023/03/16 11:41:48;;;;;;;1.10;0.65;;;;;;;19.70;39.98;101322.09;5050002;27;98680;-75
2023/03/16 11:44:40;;;;;;;0.70;0.40;;;;;;;19.68;39.90;101327.72;5047344;27;97852;-75
2023/03/16 11:47:41;;;;;;;0.60;0.50;;;;;;;19.66;39.82;101320.69;5035753;27;96761;-75
2023/03/16 11:50:21;;;;;;;1.05;0.40;;;;;;;19.59;39.88;101311.44;5048211;27;97037;-75
2023/03/16 11:52:59;;;;;;;0.75;0.47;;;;;;;19.58;40.11;101310.59;5036776;27;97706;-74
2023/03/16 11:55:44;;;;;;;0.75;0.50;;;;;;;19.50;39.91;101307.75;5045703;27;97350;-75
2023/03/16 11:58:27;;;;;;;2.38;0.40;;;;;;;19.48;40.00;101307.06;5052555;27;96849;-76
2023/03/16 12:01:08;;;;;;;1.30;0.73;;;;;;;19.48;39.96;101300.75;5027166;27;97301;-76
2023/03/16 12:03:52;;;;;;;0.68;0.50;;;;;;;19.45;40.33;101303.78;5047574;27;97198;-76
2023/03/16 12:06:40;;;;;;;0.40;0.30;;;;;;;19.46;40.41;101297.31;5044695;27;96934;-76
2023/03/16 12:09:06;;;;;;;0.70;0.40;;;;;;;19.46;40.42;101294.59;5045623;27;96737;-75
2023/03/16 12:11:44;;;;;;;0.52;0.45;;;;;;;19.47;40.41;101294.44;5051911;27;96990;-76
2023/03/16 12:14:19;;;;;;;0.70;0.43;;;;;;;19.45;40.56;101285.56;5051617;27;97361;-76
2023/03/16 12:17:07;;;;;;;;;;;;;;;19.48;40.48;101284.41;5053151;27;97274;-76
2023/03/16 12:19:55;;;;;;;0.88;0.75;;;;;;;19.50;40.35;101280.50;5050327;27;96834;-76
2023/03/16 12:22:27;;;;;;;0.88;0.47;;;;;;;19.45;40.54;101277.41;5051888;27;96816;-75
2023/03/16 12:24:54;;;;;;;0.85;0.50;;;;;;;19.48;40.22;101262.59;5040669;27;97315;-75
2023/03/16 12:27:25;;;;;;;0.70;0.40;;;;;;;19.51;40.21;101257.69;5028420;27;97427;-76
2023/03/16 12:30:09;;;;;;;0.57;0.38;;;;;;;19.51;40.46;101254.97;5022045;27;96919;-76
2023/03/16 12:32:49;;;;;;;0.40;0.30;;;;;;;19.51;40.35;101256.84;5043138;27;96819;-75
2023/03/16 12:35:40;;;;;;;1.60;0.50;;;;;;;19.48;40.05;101257.16;5031859;27;97064;-75
2023/03/16 12:38:14;;;;;;;0.68;0.40;;;;;;;19.44;40.21;101239.41;5041782;27;97078;-75
2023/03/16 12:40:58;;;;;;;0.45;0.40;;;;;;;19.39;40.66;101239.88;5046266;27;97174;-75
2023/03/16 12:43:44;;;;;;;0.40;0.30;;;;;;;19.35;40.66;101236.63;5031004;27;97734;-76
2023/03/16 12:46:17;;;;;;;0.60;0.40;;;;;;;19.34;40.79;101237.63;5027676;27;97733;-75
2023/03/16 12:48:48;;;;;;;1.05;0.45;;;;;;;19.31;40.67;101237.91;5046534;27;98594;-76
2023/03/16 12:51:16;;;;;;;0.68;0.40;;;;;;;19.36;40.55;101221.13;5047010;27;96921;-76
2023/03/16 12:53:54;;;;;;;0.50;0.40;;;;;;;19.41;40.46;101213.34;5014734;27;97169;-75
2023/03/16 12:56:29;;;;;;;0.77;0.40;;;;;;;19.48;40.80;101208.97;5024837;27;98265;-77
2023/03/16 12:58:59;;;;;;;0.98;0.50;;;;;;;19.52;40.78;101207.69;5026365;28;97103;-77
2023/03/16 13:01:29;;;;;;;0.70;0.50;;;;;;;19.56;40.52;101205.50;5051253;27;97006;-76
2023/03/16 13:04:16;;;;;;;1.38;0.60;;;;;;;19.55;40.56;101204.66;5040694;27;96840;-77
2023/03/16 13:06:47;;;;;;;0.80;0.30;;;;;;;19.57;40.18;101188.13;5047669;27;96813;-76
2023/03/16 13:09:27;;;;;;;0.45;0.40;;;;;;;19.60;40.51;101179.66;5046555;27;96899;-77
2023/03/16 13:11:54;;;;;;;0.60;0.40;;;;;;;19.61;40.37;101160.41;5046497;27;97165;-76
2023/03/16 13:14:37;;;;;;;0.73;0.40;;;;;;;19.60;40.63;101164.16;5041103;27;96692;-76
2023/03/16 13:17:16;;;;;;;0.60;0.35;;;;;;;19.61;40.17;101167.72;5041021;27;96857;-76
2023/03/16 13:19:56;;;;;;;0.40;0.40;;;;;;;19.65;40.49;101163.66;5045606;27;96716;-76
2023/03/16 13:23:08;;;;;;;0.45;0.38;;;;;;;19.67;40.31;101153.47;5029967;27;96893;-76
2023/03/16 13:25:44;;;;;;;0.55;0.30;;;;;;;19.69;40.32;101156.88;5027729;27;96855;-76
2023/03/16 13:28:13;;;;;;;0.98;0.40;;;;;;;19.71;40.33;101159.44;5033890;27;97385;-76
2023/03/16 13:30:47;;;;;;;0.52;0.32;;;;;;;19.70;40.26;101153.16;5038519;27;97306;-77
2023/03/16 13:33:20;;;;;;;0.63;0.40;;;;;;;19.73;39.87;101149.25;5047007;27;97166;-76
2023/03/16 13:35:49;;;;;;;1.20;0.32;;;;;;;19.75;40.40;101155.38;5032939;27;96963;-76
2023/03/16 13:38:19;;;;;;;1.20;0.40;;;;;;;19.76;39.96;101157.09;5031241;28;98931;-76
2023/03/16 13:40:49;;;;;;;0.85;0.50;;;;;;;19.77;40.48;101150.63;5028571;27;98798;-75
2023/03/16 13:43:17;;;;;;;0.47;0.35;;;;;;;19.73;40.32;101152.81;5045793;27;96623;-75
2023/03/16 13:45:44;;;;;;;0.80;0.40;;;;;;;19.79;40.28;101138.56;5048986;27;96829;-76
2023/03/16 13:48:12;;;;;;;1.45;0.22;;;;;;;19.82;39.89;101142.81;5035708;27;96820;-75
2023/03/16 13:50:41;;;;;;;0.82;0.60;;;;;;;19.83;40.20;101131.75;5045583;27;97580;-76
2023/03/16 13:53:18;;;;;;;0.40;0.30;;;;;;;19.86;40.22;101134.16;5026822;27;96770;-75
2023/03/16 13:55:46;;;;;;;0.77;0.30;;;;;;;19.90;39.95;101140.16;5026421;27;96902;-76
2023/03/16 13:58:19;;;;;;;0.50;0.40;;;;;;;19.91;40.07;101130.94;5017739;27;99975;-76
2023/03/16 14:00:46;;;;;;;0.77;0.50;;;;;;;19.88;39.80;101129.41;5025652;28;98716;-76
2023/03/16 14:03:16;;;;;;;0.75;0.30;;;;;;;19.90;40.15;101116.47;5040767;27;97222;-76
2023/03/16 14:05:43;;;;;;;0.57;0.35;;;;;;;19.92;39.90;101117.16;5041021;27;99646;-76
2023/03/16 14:08:20;;;;;;;1.98;0.45;;;;;;;19.93;40.15;101118.00;5030188;27;100510;-75
2023/03/16 14:10:47;;;;;;;1.90;0.50;;;;;;;19.93;40.12;101098.94;5035882;27;97112;-75
2023/03/16 14:13:26;;;;;;;0.70;0.40;;;;;;;19.93;39.81;101098.94;5050656;27;96754;-74
2023/03/16 14:15:55;;;;;;;0.95;0.55;;;;;;;19.90;40.04;101085.63;5043452;27;96848;-75
2023/03/16 14:18:29;;;;;;;1.20;0.50;;;;;;;19.89;40.07;101087.50;5042918;27;97687;-74
2023/03/16 14:20:55;;;;;;;0.40;0.35;;;;;;;19.92;40.03;101084.44;5012281;28;99455;-75
2023/03/16 14:23:27;;;;;;;0.65;0.43;;;;;;;19.92;40.08;101080.88;5040607;27;96875;-74
2023/03/16 14:25:54;;;;;;;0.60;0.40;;;;;;;19.91;40.33;101079.16;5054225;27;97251;-75
2023/03/16 14:28:28;;;;;;;0.45;0.30;;;;;;;19.94;40.24;101073.38;5025499;27;99049;-75
2023/03/16 14:31:08;;;;;;;0.50;0.20;;;;;;;19.95;39.95;101067.75;5029275;27;97386;-74
2023/03/16 14:33:38;;;;;;;1.25;0.40;;;;;;;19.97;40.17;101073.91;5047716;27;97235;-74
2023/03/16 14:36:17;;;;;;;0.77;0.50;;;;;;;19.99;40.31;101071.00;5041852;27;97784;-75
2023/03/16 14:38:47;;;;;;;1.45;0.30;;;;;;;19.98;39.94;101056.53;5031589;27;97827;-75
2023/03/16 14:41:24;;;;;;;0.90;0.40;;;;;;;19.99;40.04;101065.56;5024307;27;98701;-74
2023/03/16 14:43:56;;;;;;;3.42;0.40;;;;;;;20.04;40.20;101048.72;5027198;27;97357;-75
2023/03/16 14:46:31;;;;;;;1.25;0.70;;;;;;;20.05;40.15;101044.97;5048040;27;96850;-74
2023/03/16 14:49:27;;;;;;;0.75;0.45;;;;;;;20.08;39.99;101047.38;5035402;27;97725;-74
2023/03/16 14:52:14;;;;;;;3.47;0.60;;;;;;;20.09;39.94;101044.50;5031438;27;97959;-74
2023/03/16 14:54:40;;;;;;;0.63;0.47;;;;;;;20.13;40.31;101039.56;5047838;27;97370;-74
2023/03/16 14:57:15;;;;;;;0.82;0.47;;;;;;;20.12;40.29;101038.72;5035196;27;97152;-74
2023/03/16 14:59:44;;;;;;;;;;;;;;;20.12;40.26;101043.31;5041394;27;96883;-75
2023/03/16 15:02:24;;;;;;;0.55;0.40;;;;;;;20.12;40.26;101044.16;5036231;27;97737;-74
2023/03/16 15:04:50;;;;;;;1.08;0.50;;;;;;;20.12;39.98;101033.25;5049581;27;97211;-74
2023/03/16 15:07:28;;;;;;;1.00;0.50;;;;;;;20.13;40.00;101032.25;5046800;27;96798;-75
2023/03/16 15:10:05;;;;;;;1.00;0.40;;;;;;;20.09;40.37;101033.59;5046839;27;97006;-74
2023/03/16 15:12:33;;;;;;;0.57;0.38;;;;;;;20.11;40.08;101022.53;5046405;27;96684;-75
2023/03/16 15:15:15;;;;;;;1.88;0.40;;;;;;;20.13;40.06;101012.28;5023700;27;96935;-75
2023/03/16 15:17:45;;;;;;;1.13;0.45;;;;;;;20.13;39.98;101020.47;5048046;27;96686;-75
2023/03/16 15:20:14;;;;;;;0.85;0.57;;;;;;;20.11;40.17;101026.09;5042489;27;96942;-75
2023/03/16 15:22:42;;;;;;;1.00;0.43;;;;;;;20.09;40.09;101016.38;5047207;27;97931;-75
2023/03/16 15:25:24;;;;;;;2.00;0.50;;;;;;;20.09;40.52;101011.78;5031961;27;97461;-75
2023/03/16 15:27:52;;;;;;;0.50;0.45;;;;;;;20.14;40.48;101009.41;5026446;27;97003;-76
2023/03/16 15:30:24;;;;;;;0.60;0.40;;;;;;;20.16;40.45;101007.38;5049888;27;97807;-75
2023/03/16 15:32:51;;;;;;;0.68;0.40;;;;;;;20.14;40.28;101005.81;5033720;27;96769;-75
2023/03/16 15:35:19;;;;;;;1.42;0.40;;;;;;;20.16;40.52;101007.38;5029910;27;97054;-75
2023/03/16 15:37:46;;;;;;;1.00;0.50;;;;;;;20.16;40.58;100996.44;5045787;27;97455;-74
2023/03/16 15:40:27;;;;;;;1.63;0.40;;;;;;;20.16;40.53;100984.69;5045531;27;96972;-75
2023/03/16 15:42:54;;;;;;;0.75;0.50;;;;;;;20.20;40.52;100986.06;5049821;27;96673;-75
2023/03/16 15:45:22;;;;;;;0.40;0.32;;;;;;;20.21;40.24;100985.91;5032943;27;96860;-75
2023/03/16 15:47:50;;;;;;;0.60;0.30;;;;;;;20.23;40.12;100991.19;5053212;27;96857;-75
2023/03/16 15:50:20;;;;;;;0.98;0.40;;;;;;;20.25;40.37;100980.97;5051093;27;97044;-75
2023/03/16 15:52:59;;;;;;;0.77;0.40;;;;;;;20.28;40.08;100978.75;5051754;27;96777;-75
2023/03/16 15:55:39;;;;;;;0.80;0.40;;;;;;;20.32;40.01;100979.25;5033980;27;96658;-75
2023/03/16 15:58:16;;;;;;;0.45;0.38;;;;;;;20.32;39.97;100979.25;5050418;27;96944;-75
2023/03/16 16:00:42;;;;;;;0.60;0.35;;;;;;;20.33;40.15;100980.97;5043142;27;98826;-75
2023/03/16 16:03:10;;;;;;;0.98;0.40;;;;;;;20.30;39.98;100981.31;5050249;27;97114;-74
2023/03/16 16:05:36;;;;;;;0.82;0.50;;;;;;;20.27;40.09;100982.50;5041128;27;97231;-74
2023/03/16 16:08:04;;;;;;;0.75;0.40;;;;;;;20.28;40.16;100984.19;5047785;27;96829;-74
2023/03/16 16:10:31;;;;;;;1.17;0.45;;;;;;;20.27;40.38;100978.91;5023229;27;98757;-73
2023/03/16 16:12:58;;;;;;;0.75;0.40;;;;;;;20.28;40.21;100972.44;5049019;27;97915;-74
2023/03/16 16:15:32;;;;;;;0.20;0.20;;;;;;;20.29;40.05;100972.28;5035024;27;97403;-74
2023/03/16 16:18:00;;;;;;;1.90;0.40;;;;;;;20.24;40.23;100971.94;5046188;27;96747;-74
2023/03/16 16:20:47;;;;;;;1.02;0.43;;;;;;;20.22;40.33;100968.50;5050645;27;97792;-74
2023/03/16 16:23:13;;;;;;;1.05;0.50;;;;;;;20.18;40.21;100964.41;5036248;27;96810;-73
2023/03/16 16:25:41;;;;;;;2.15;0.45;;;;;;;20.11;40.83;100968.84;5054951;27;97458;-74
2023/03/16 16:28:29;;;;;;;1.20;0.50;;;;;;;20.07;40.47;100964.75;5040212;27;98395;-75
2023/03/16 16:30:58;;;;;;;1.00;0.50;;;;;;;20.02;40.57;100960.78;5023621;27;99900;-74
2023/03/16 16:33:33;;;;;;;1.15;0.50;;;;;;;19.96;40.83;100957.69;5044763;27;97486;-74
2023/03/16 16:36:02;;;;;;;1.67;0.60;;;;;;;19.94;40.89;100957.03;5035601;27;97092;-76
2023/03/16 16:38:30;;;;;;;0.82;0.35;;;;;;;19.90;41.13;100960.25;5050587;27;97601;-74
2023/03/16 16:41:00;;;;;;;0.45;0.25;;;;;;;19.88;41.34;100962.28;5050022;27;96742;-73
2023/03/16 16:43:40;;;;;;;1.25;0.50;;;;;;;19.87;41.42;100964.16;5030078;27;97716;-73
2023/03/16 16:46:14;;;;;;;0.88;0.50;;;;;;;19.89;41.31;100966.72;5029876;27;97272;-74
2023/03/16 16:48:44;;;;;;;2.23;0.73;;;;;;;19.91;41.15;100964.69;5037078;27;97305;-73
2023/03/16 16:51:23;;;;;;;1.33;0.60;;;;;;;19.93;41.20;100963.50;5029923;27;97098;-73
2023/03/16 16:53:52;;;;;;;1.27;0.60;;;;;;;19.96;41.32;100956.84;5050351;27;97477;-73
2023/03/16 16:56:27;;;;;;;1.80;0.70;;;;;;;19.96;41.23;100962.31;5048205;27;97131;-74
2023/03/16 16:59:00;;;;;;;1.52;0.80;;;;;;;19.94;41.17;100962.47;5020743;27;97080;-73
2023/03/16 17:01:31;;;;;;;1.60;0.50;;;;;;;19.93;41.49;100960.75;5030728;27;98940;-74
2023/03/16 17:03:58;;;;;;;2.15;0.70;;;;;;;19.90;41.63;100960.25;5048763;27;97277;-74
2023/03/16 17:06:26;;;;;;;1.00;0.70;;;;;;;19.85;41.77;100966.19;5051984;27;97256;-74
2023/03/16 17:08:56;;;;;;;1.85;0.90;;;;;;;19.79;41.37;100955.97;5046900;27;96945;-73
2023/03/16 17:11:24;;;;;;;2.60;0.65;;;;;;;19.79;41.51;100952.38;5048639;27;97035;-73
2023/03/16 17:13:52;;;;;;;1.95;0.85;;;;;;;19.79;41.60;100955.09;5032393;27;98091;-74
2023/03/16 17:16:21;;;;;;;4.53;0.90;;;;;;;19.72;41.41;100957.66;5034767;27;97127;-74
2023/03/16 17:18:48;;;;;;;2.55;0.90;;;;;;;19.62;41.70;100959.66;5020115;27;97759;-74
2023/03/16 17:21:18;;;;;;;2.45;1.05;;;;;;;19.65;42.01;100962.03;5046543;27;97775;-74
2023/03/16 17:23:46;;;;;;;2.25;0.90;;;;;;;19.61;42.01;100958.81;5034733;27;99398;-74
2023/03/16 17:26:18;;;;;;;1.50;0.75;;;;;;;19.61;42.26;100972.41;5035048;27;96839;-74
2023/03/16 17:28:50;;;;;;;2.25;0.90;;;;;;;19.63;42.20;100967.66;5050278;27;96815;-74
2023/03/16 17:31:24;;;;;;;1.90;0.80;;;;;;;19.58;42.24;100963.72;5021028;27;96782;-74
2023/03/16 17:33:52;;;;;;;1.67;0.70;;;;;;;19.58;42.57;100958.28;5039642;27;97099;-74
2023/03/16 17:36:20;;;;;;;1.00;0.60;;;;;;;19.60;42.48;100962.53;5048735;27;97018;-74
2023/03/16 17:38:46;;;;;;;2.00;1.00;;;;;;;19.63;42.47;100962.22;5034686;27;96950;-74
2023/03/16 17:41:25;;;;;;;2.08;1.00;;;;;;;19.67;42.06;100954.56;5014069;27;99336;-73
2023/03/16 17:43:55;;;;;;;1.33;0.80;;;;;;;19.58;42.30;100961.84;5026145;27;99127;-74
2023/03/16 17:46:27;;;;;;;1.45;0.70;;;;;;;19.56;42.22;100968.47;5027457;27;97871;-75
2023/03/16 17:48:54;;;;;;;1.23;0.80;;;;;;;19.55;42.33;100964.91;5043387;27;96733;-73
2023/03/16 17:51:24;;;;;;;1.48;0.95;;;;;;;19.57;42.50;100967.47;5040493;27;98232;-73
2023/03/16 17:53:50;;;;;;;1.23;0.65;;;;;;;19.60;42.54;100961.69;5022777;27;97570;-73
2023/03/16 17:56:21;;;;;;;1.40;0.60;;;;;;;19.60;42.49;100967.13;5019721;27;97214;-73
2023/03/16 17:58:52;;;;;;;1.45;0.70;;;;;;;19.61;42.47;100972.41;5042722;27;96876;-73
2023/03/16 18:01:22;;;;;;;2.33;0.80;;;;;;;19.56;42.26;100963.03;5040652;27;97774;-73
2023/03/16 18:03:49;;;;;;;1.77;0.82;;;;;;;19.55;42.31;100964.91;5034125;27;100170;-73
2023/03/16 18:06:19;;;;;;;1.70;0.73;;;;;;;19.52;42.46;100965.22;5049050;27;96806;-72
2023/03/16 18:08:47;;;;;;;0.98;0.57;;;;;;;19.59;42.54;100973.59;5043551;27;97182;-73
2023/03/16 18:11:23;;;;;;;1.60;0.70;;;;;;;19.62;42.68;100965.94;5026026;27;97782;-73
2023/03/16 18:13:50;;;;;;;2.45;0.80;;;;;;;19.60;42.63;100962.53;5045362;27;97306;-74
2023/03/16 18:16:23;;;;;;;1.65;0.75;;;;;;;19.72;42.61;100956.78;5042523;27;96807;-74
2023/03/16 18:18:52;;;;;;;1.60;0.80;;;;;;;19.72;42.31;100967.69;5041701;27;96798;-74
2023/03/16 18:21:21;;;;;;;1.13;0.60;;;;;;;19.68;42.64;100959.84;5040945;27;97801;-74
2023/03/16 18:23:48;;;;;;;1.42;0.80;;;;;;;19.68;42.44;100957.13;5041022;27;98846;-74
2023/03/16 18:26:15;;;;;;;1.60;0.70;;;;;;;19.72;42.43;100956.78;5045123;27;96857;-74
2023/03/16 18:28:42;;;;;;;1.30;0.60;;;;;;;19.68;42.50;100953.53;5042260;27;96655;-74
2023/03/16 18:31:17;;;;;;;4.95;1.10;;;;;;;19.70;42.18;100954.22;5046628;27;96966;-74
2023/03/16 18:33:45;;;;;;;2.38;0.75;;;;;;;19.75;42.29;100962.75;5040773;27;97510;-73
2023/03/16 18:36:16;;;;;;;2.03;0.70;;;;;;;19.77;42.45;100962.59;5048298;27;96711;-73
2023/03/16 18:38:47;;;;;;;2.60;0.70;;;;;;;19.72;42.53;100973.13;5039814;27;97111;-74
2023/03/16 18:41:22;;;;;;;2.15;0.90;;;;;;;19.72;42.53;100963.09;5034692;27;96777;-74
2023/03/16 18:43:50;;;;;;;2.67;0.82;;;;;;;19.75;42.39;100960.03;5038909;27;96950;-74
2023/03/16 18:46:25;;;;;;;3.10;0.73;;;;;;;19.75;42.20;100956.47;5025125;27;96697;-73
2023/03/16 18:48:57;;;;;;;1.52;0.75;;;;;;;19.74;42.48;100958.31;5028355;27;97034;-74
2023/03/16 18:51:25;;;;;;;1.67;0.90;;;;;;;19.72;42.22;100952.19;5037749;27;96768;-74
2023/03/16 18:53:52;;;;;;;2.78;0.73;;;;;;;19.74;42.29;100952.03;5038579;27;98829;-73
2023/03/16 18:56:25;;;;;;;2.47;0.98;;;;;;;19.80;42.42;100954.09;5031819;27;96790;-73
2023/03/16 18:58:54;;;;;;;1.10;0.60;;;;;;;19.77;42.28;100960.72;5045128;27;97095;-73
2023/03/16 19:01:29;;;;;;;0.75;0.50;;;;;;;19.73;42.19;100967.53;5041260;27;98222;-74
2023/03/16 19:03:58;;;;;;;1.55;0.70;;;;;;;19.74;42.04;100966.50;5042907;27;97879;-73
2023/03/16 19:06:34;;;;;;;1.00;0.70;;;;;;;19.75;42.13;100964.63;5038715;27;96770;-73
2023/03/16 19:09:12;;;;;;;1.23;0.73;;;;;;;19.77;42.01;100958.00;5043294;27;97177;-73
2023/03/16 19:11:41;;;;;;;1.25;0.70;;;;;;;19.82;42.38;100960.22;5036418;27;97773;-73
2023/03/16 19:14:17;;;;;;;1.02;0.60;;;;;;;19.81;42.18;100958.53;5048696;27;97404;-73
2023/03/16 19:16:45;;;;;;;2.47;0.77;;;;;;;19.79;42.01;100946.94;5029417;27;96890;-73
2023/03/16 19:19:13;;;;;;;2.22;0.80;;;;;;;19.84;42.03;100936.38;5040601;27;96942;-73
2023/03/16 19:21:40;;;;;;;0.88;0.65;;;;;;;19.80;42.08;100935.88;5044280;27;97857;-73
2023/03/16 19:24:18;;;;;;;1.23;0.75;;;;;;;19.80;42.00;100941.31;5027748;27;96673;-73
2023/03/16 19:26:45;;;;;;;1.20;0.63;;;;;;;19.84;42.20;100939.97;5039376;27;96939;-73
2023/03/16 19:29:13;;;;;;;2.63;0.80;;;;;;;19.78;42.17;100929.72;5020189;27;96851;-73
2023/03/16 19:31:39;;;;;;;1.98;0.70;;;;;;;19.75;41.97;100923.75;5034543;27;96977;-73
2023/03/16 19:34:16;;;;;;;1.30;0.70;;;;;;;19.80;42.05;100908.63;5019334;27;97272;-73
2023/03/16 19:36:42;;;;;;;1.35;0.60;;;;;;;19.82;42.31;100916.63;5016044;27;97171;-73
2023/03/16 19:39:13;;;;;;;1.55;0.70;;;;;;;19.84;41.85;100914.56;5025359;27;96905;-73
2023/03/16 19:41:40;;;;;;;1.17;0.70;;;;;;;19.83;42.12;100911.00;5016692;27;96763;-73
2023/03/16 19:44:16;;;;;;;1.65;0.60;;;;;;;19.83;42.22;100913.72;5040951;27;97511;-74